sensor_id;sensor_type;location;lat;lon;timestamp;temperature;humidity
5520;DHT22;2782;52.362;10.012;2023-04-01T00:01:00;18.70;86.90
5520;DHT22;2782;52.362;10.012;2023-04-01T00:02:02;18.70;86.90
5520;DHT22;2782;52.362;10.012;2023-04-01T00:03:04;18.70;86.90
5520;DHT22;2782;52.362;10.012;2023-04-01T00:04:05;18.70;87.00
5520;DHT22;2782;52.362;10.012;2023-04-01T00:05:07;18.70;87.00
5520;DHT22;2782;52.362;10.012;2023-04-01T00:06:09;18.70;87.10
5520;DHT22;2782;52.362;10.012;2023-04-01T00:07:12;18.70;87.10
5520;DHT22;2782;52.362;10.012;2023-04-01T00:08:15;18.70;87.10
5520;DHT22;2782;52.362;10.012;2023-04-01T00:09:17;18.70;87.20
5520;DHT22;2782;52.362;10.012;2023-04-01T00:10:18;18.70;87.30
5520;DHT22;2782;52.362;10.012;2023-04-01T00:11:19;18.70;87.40
5520;DHT22;2782;52.362;10.012;2023-04-01T00:12:21;18.70;87.50
5520;DHT22;2782;52.362;10.012;2023-04-01T00:13:23;18.70;87.60
5520;DHT22;2782;52.362;10.012;2023-04-01T00:14:25;18.70;87.70
5520;DHT22;2782;52.362;10.012;2023-04-01T00:15:27;18.70;87.70
5520;DHT22;2782;52.362;10.012;2023-04-01T00:16:28;18.70;87.90
5520;DHT22;2782;52.362;10.012;2023-04-01T00:17:29;18.70;87.90
5520;DHT22;2782;52.362;10.012;2023-04-01T00:18:30;18.70;88.10
5520;DHT22;2782;52.362;10.012;2023-04-01T00:19:32;18.70;88.20
5520;DHT22;2782;52.362;10.012;2023-04-01T00:20:32;18.70;88.20
5520;DHT22;2782;52.362;10.012;2023-04-01T00:21:34;18.70;88.20
5520;DHT22;2782;52.362;10.012;2023-04-01T00:22:37;18.70;88.20
5520;DHT22;2782;52.362;10.012;2023-04-01T00:23:40;18.70;88.10
5520;DHT22;2782;52.362;10.012;2023-04-01T00:24:41;18.70;88.10
5520;DHT22;2782;52.362;10.012;2023-04-01T00:25:43;18.70;88.00
5520;DHT22;2782;52.362;10.012;2023-04-01T00:26:45;18.70;87.90
5520;DHT22;2782;52.362;10.012;2023-04-01T00:27:48;18.70;87.90
5520;DHT22;2782;52.362;10.012;2023-04-01T00:28:49;18.70;87.90
5520;DHT22;2782;52.362;10.012;2023-04-01T00:29:51;18.70;87.90
5520;DHT22;2782;52.362;10.012;2023-04-01T00:30:52;18.70;87.80
5520;DHT22;2782;52.362;10.012;2023-04-01T00:31:53;18.70;87.90
5520;DHT22;2782;52.362;10.012;2023-04-01T00:32:54;18.70;87.80
5520;DHT22;2782;52.362;10.012;2023-04-01T00:33:56;18.70;87.80
5520;DHT22;2782;52.362;10.012;2023-04-01T00:34:56;18.70;87.80
5520;DHT22;2782;52.362;10.012;2023-04-01T00:36:07;18.70;87.80
5520;DHT22;2782;52.362;10.012;2023-04-01T00:37:08;18.70;87.80
5520;DHT22;2782;52.362;10.012;2023-04-01T00:38:10;18.70;87.80
5520;DHT22;2782;52.362;10.012;2023-04-01T00:39:13;18.70;87.70
5520;DHT22;2782;52.362;10.012;2023-04-01T00:40:25;18.70;87.80
5520;DHT22;2782;52.362;10.012;2023-04-01T00:41:26;18.60;87.70
5520;DHT22;2782;52.362;10.012;2023-04-01T00:42:28;18.60;87.70
5520;DHT22;2782;52.362;10.012;2023-04-01T00:43:29;18.60;87.70
5520;DHT22;2782;52.362;10.012;2023-04-01T00:44:33;18.60;87.70
5520;DHT22;2782;52.362;10.012;2023-04-01T00:45:37;18.60;87.70
5520;DHT22;2782;52.362;10.012;2023-04-01T00:46:39;18.60;87.70
5520;DHT22;2782;52.362;10.012;2023-04-01T00:47:40;18.60;87.70
5520;DHT22;2782;52.362;10.012;2023-04-01T00:48:45;18.60;87.70
5520;DHT22;2782;52.362;10.012;2023-04-01T00:49:50;18.60;87.70
5520;DHT22;2782;52.362;10.012;2023-04-01T00:50:55;18.60;87.70
5520;DHT22;2782;52.362;10.012;2023-04-01T00:52:00;18.60;87.70
5520;DHT22;2782;52.362;10.012;2023-04-01T00:53:03;18.60;87.70
5520;DHT22;2782;52.362;10.012;2023-04-01T00:54:05;18.60;87.70
5520;DHT22;2782;52.362;10.012;2023-04-01T00:55:10;18.60;87.70
5520;DHT22;2782;52.362;10.012;2023-04-01T00:56:13;18.60;87.80
5520;DHT22;2782;52.362;10.012;2023-04-01T00:57:18;18.60;87.70
5520;DHT22;2782;52.362;10.012;2023-04-01T00:58:21;18.60;87.70
5520;DHT22;2782;52.362;10.012;2023-04-01T00:59:27;18.60;87.60
5520;DHT22;2782;52.362;10.012;2023-04-01T01:00:28;18.60;87.70
5520;DHT22;2782;52.362;10.012;2023-04-01T01:01:32;18.60;87.70
5520;DHT22;2782;52.362;10.012;2023-04-01T01:02:34;18.60;87.70
5520;DHT22;2782;52.362;10.012;2023-04-01T01:03:36;18.60;87.60
5520;DHT22;2782;52.362;10.012;2023-04-01T01:04:37;18.60;87.70
5520;DHT22;2782;52.362;10.012;2023-04-01T01:05:52;18.60;87.70
5520;DHT22;2782;52.362;10.012;2023-04-01T01:07:03;18.60;87.70
5520;DHT22;2782;52.362;10.012;2023-04-01T01:08:14;18.60;87.60
5520;DHT22;2782;52.362;10.012;2023-04-01T01:09:26;18.50;87.60
5520;DHT22;2782;52.362;10.012;2023-04-01T01:10:33;18.50;87.60
5520;DHT22;2782;52.362;10.012;2023-04-01T01:11:39;18.50;87.60
5520;DHT22;2782;52.362;10.012;2023-04-01T01:12:46;18.50;87.60
5520;DHT22;2782;52.362;10.012;2023-04-01T01:13:58;18.50;87.60
5520;DHT22;2782;52.362;10.012;2023-04-01T01:15:09;18.50;87.60
5520;DHT22;2782;52.362;10.012;2023-04-01T01:16:15;18.50;87.60
5520;DHT22;2782;52.362;10.012;2023-04-01T01:17:26;18.50;87.60
5520;DHT22;2782;52.362;10.012;2023-04-01T01:18:35;18.50;87.60
5520;DHT22;2782;52.362;10.012;2023-04-01T01:19:53;18.50;87.70
5520;DHT22;2782;52.362;10.012;2023-04-01T01:21:14;18.50;87.80
5520;DHT22;2782;52.362;10.012;2023-04-01T01:22:48;18.50;87.80
5520;DHT22;2782;52.362;10.012;2023-04-01T01:25:36;18.50;88.20
5520;DHT22;2782;52.362;10.012;2023-04-01T01:26:53;18.50;88.30
5520;DHT22;2782;52.362;10.012;2023-04-01T01:28:02;18.40;88.30
5520;DHT22;2782;52.362;10.012;2023-04-01T01:29:14;18.40;88.40
5520;DHT22;2782;52.362;10.012;2023-04-01T01:30:39;18.40;88.40
5520;DHT22;2782;52.362;10.012;2023-04-01T01:31:47;18.40;88.40
5520;DHT22;2782;52.362;10.012;2023-04-01T01:33:28;18.40;88.50
5520;DHT22;2782;52.362;10.012;2023-04-01T01:34:38;18.40;88.40
5520;DHT22;2782;52.362;10.012;2023-04-01T01:35:44;18.40;88.20
5520;DHT22;2782;52.362;10.012;2023-04-01T01:36:49;18.40;88.20
5520;DHT22;2782;52.362;10.012;2023-04-01T01:37:56;18.40;88.10
5520;DHT22;2782;52.362;10.012;2023-04-01T01:38:58;18.40;88.10
5520;DHT22;2782;52.362;10.012;2023-04-01T01:40:03;18.40;88.00
5520;DHT22;2782;52.362;10.012;2023-04-01T01:41:07;18.40;87.90
5520;DHT22;2782;52.362;10.012;2023-04-01T01:42:11;18.40;87.90
5520;DHT22;2782;52.362;10.012;2023-04-01T01:43:17;18.40;87.80
5520;DHT22;2782;52.362;10.012;2023-04-01T01:44:21;18.40;87.80
5520;DHT22;2782;52.362;10.012;2023-04-01T01:45:26;18.40;87.70
5520;DHT22;2782;52.362;10.012;2023-04-01T01:46:29;18.40;87.70
5520;DHT22;2782;52.362;10.012;2023-04-01T01:47:32;18.40;87.60
5520;DHT22;2782;52.362;10.012;2023-04-01T01:48:35;18.40;87.60
5520;DHT22;2782;52.362;10.012;2023-04-01T01:49:39;18.40;87.60
5520;DHT22;2782;52.362;10.012;2023-04-01T01:50:43;18.40;87.50
5520;DHT22;2782;52.362;10.012;2023-04-01T01:51:46;18.40;87.50
5520;DHT22;2782;52.362;10.012;2023-04-01T01:52:48;18.40;87.40
5520;DHT22;2782;52.362;10.012;2023-04-01T01:53:50;18.40;87.40
5520;DHT22;2782;52.362;10.012;2023-04-01T01:54:51;18.40;87.30
5520;DHT22;2782;52.362;10.012;2023-04-01T01:55:53;18.40;87.30
5520;DHT22;2782;52.362;10.012;2023-04-01T01:57:01;18.40;87.30
5520;DHT22;2782;52.362;10.012;2023-04-01T01:58:08;18.40;87.20
5520;DHT22;2782;52.362;10.012;2023-04-01T01:59:11;18.40;87.20
5520;DHT22;2782;52.362;10.012;2023-04-01T02:00:14;18.40;87.20
5520;DHT22;2782;52.362;10.012;2023-04-01T02:01:17;18.40;87.20
5520;DHT22;2782;52.362;10.012;2023-04-01T02:02:21;18.40;87.10
5520;DHT22;2782;52.362;10.012;2023-04-01T02:03:24;18.40;87.10
5520;DHT22;2782;52.362;10.012;2023-04-01T02:04:27;18.40;87.10
5520;DHT22;2782;52.362;10.012;2023-04-01T02:05:29;18.40;87.10
5520;DHT22;2782;52.362;10.012;2023-04-01T02:06:35;18.40;87.10
5520;DHT22;2782;52.362;10.012;2023-04-01T02:07:38;18.40;87.00
5520;DHT22;2782;52.362;10.012;2023-04-01T02:08:43;18.40;87.00
5520;DHT22;2782;52.362;10.012;2023-04-01T02:09:45;18.40;87.00
5520;DHT22;2782;52.362;10.012;2023-04-01T02:10:52;18.40;86.90
5520;DHT22;2782;52.362;10.012;2023-04-01T02:11:58;18.40;86.90
5520;DHT22;2782;52.362;10.012;2023-04-01T02:13:07;18.40;86.90
5520;DHT22;2782;52.362;10.012;2023-04-01T02:14:11;18.40;86.90
5520;DHT22;2782;52.362;10.012;2023-04-01T02:15:16;18.40;86.90
5520;DHT22;2782;52.362;10.012;2023-04-01T02:16:22;18.40;86.80
5520;DHT22;2782;52.362;10.012;2023-04-01T02:17:27;18.40;86.80
5520;DHT22;2782;52.362;10.012;2023-04-01T02:18:29;18.40;86.90
5520;DHT22;2782;52.362;10.012;2023-04-01T02:19:33;18.40;86.90
5520;DHT22;2782;52.362;10.012;2023-04-01T02:20:38;18.40;86.80
5520;DHT22;2782;52.362;10.012;2023-04-01T02:21:42;18.40;86.80
5520;DHT22;2782;52.362;10.012;2023-04-01T02:22:48;18.30;86.60
5520;DHT22;2782;52.362;10.012;2023-04-01T02:23:50;18.40;86.70
5520;DHT22;2782;52.362;10.012;2023-04-01T02:24:57;18.30;86.60
5520;DHT22;2782;52.362;10.012;2023-04-01T02:25:58;18.30;86.60
5520;DHT22;2782;52.362;10.012;2023-04-01T02:27:01;18.30;86.60
5520;DHT22;2782;52.362;10.012;2023-04-01T02:28:02;18.30;86.70
5520;DHT22;2782;52.362;10.012;2023-04-01T02:29:05;18.30;86.70
5520;DHT22;2782;52.362;10.012;2023-04-01T02:30:08;18.30;86.80
5520;DHT22;2782;52.362;10.012;2023-04-01T02:31:11;18.30;86.90
5520;DHT22;2782;52.362;10.012;2023-04-01T02:32:13;18.30;86.70
5520;DHT22;2782;52.362;10.012;2023-04-01T02:33:16;18.30;86.70
5520;DHT22;2782;52.362;10.012;2023-04-01T02:34:17;18.30;86.70
5520;DHT22;2782;52.362;10.012;2023-04-01T02:35:19;18.30;86.70
5520;DHT22;2782;52.362;10.012;2023-04-01T02:36:20;18.30;86.80
5520;DHT22;2782;52.362;10.012;2023-04-01T02:37:23;18.30;86.70
5520;DHT22;2782;52.362;10.012;2023-04-01T02:38:24;18.30;86.70
5520;DHT22;2782;52.362;10.012;2023-04-01T02:39:26;18.30;86.80
5520;DHT22;2782;52.362;10.012;2023-04-01T02:40:27;18.30;86.70
5520;DHT22;2782;52.362;10.012;2023-04-01T02:41:29;18.30;86.70
5520;DHT22;2782;52.362;10.012;2023-04-01T02:42:30;18.30;86.60
5520;DHT22;2782;52.362;10.012;2023-04-01T02:43:31;18.30;86.60
5520;DHT22;2782;52.362;10.012;2023-04-01T02:44:32;18.30;86.50
5520;DHT22;2782;52.362;10.012;2023-04-01T02:45:34;18.30;86.50
5520;DHT22;2782;52.362;10.012;2023-04-01T02:46:35;18.30;86.50
5520;DHT22;2782;52.362;10.012;2023-04-01T02:47:36;18.30;86.50
5520;DHT22;2782;52.362;10.012;2023-04-01T02:48:37;18.30;86.40
5520;DHT22;2782;52.362;10.012;2023-04-01T02:49:38;18.30;86.30
5520;DHT22;2782;52.362;10.012;2023-04-01T02:50:39;18.30;86.30
5520;DHT22;2782;52.362;10.012;2023-04-01T02:51:41;18.30;86.30
5520;DHT22;2782;52.362;10.012;2023-04-01T02:52:43;18.30;86.20
5520;DHT22;2782;52.362;10.012;2023-04-01T02:53:44;18.30;86.30
5520;DHT22;2782;52.362;10.012;2023-04-01T02:54:45;18.30;86.20
5520;DHT22;2782;52.362;10.012;2023-04-01T02:55:46;18.30;86.20
5520;DHT22;2782;52.362;10.012;2023-04-01T02:56:50;18.30;86.20
5520;DHT22;2782;52.362;10.012;2023-04-01T02:57:52;18.30;86.20
5520;DHT22;2782;52.362;10.012;2023-04-01T02:58:53;18.30;86.20
5520;DHT22;2782;52.362;10.012;2023-04-01T02:59:55;18.30;86.20
5520;DHT22;2782;52.362;10.012;2023-04-01T03:00:55;18.30;86.20
5520;DHT22;2782;52.362;10.012;2023-04-01T03:01:57;18.30;86.20
5520;DHT22;2782;52.362;10.012;2023-04-01T03:02:58;18.30;86.10
5520;DHT22;2782;52.362;10.012;2023-04-01T03:04:00;18.30;86.10
5520;DHT22;2782;52.362;10.012;2023-04-01T03:05:00;18.30;86.10
5520;DHT22;2782;52.362;10.012;2023-04-01T03:06:05;18.30;86.10
5520;DHT22;2782;52.362;10.012;2023-04-01T03:07:06;18.30;86.00
5520;DHT22;2782;52.362;10.012;2023-04-01T03:08:10;18.30;86.00
5520;DHT22;2782;52.362;10.012;2023-04-01T03:09:12;18.20;85.90
5520;DHT22;2782;52.362;10.012;2023-04-01T03:10:14;18.30;86.00
5520;DHT22;2782;52.362;10.012;2023-04-01T03:11:15;18.20;85.90
5520;DHT22;2782;52.362;10.012;2023-04-01T03:12:17;18.20;85.80
5520;DHT22;2782;52.362;10.012;2023-04-01T03:13:17;18.30;85.90
5520;DHT22;2782;52.362;10.012;2023-04-01T03:14:19;18.20;85.80
5520;DHT22;2782;52.362;10.012;2023-04-01T03:15:20;18.20;85.80
5520;DHT22;2782;52.362;10.012;2023-04-01T03:16:21;18.20;85.80
5520;DHT22;2782;52.362;10.012;2023-04-01T03:17:22;18.20;85.80
5520;DHT22;2782;52.362;10.012;2023-04-01T03:18:23;18.20;85.80
5520;DHT22;2782;52.362;10.012;2023-04-01T03:19:24;18.20;85.80
5520;DHT22;2782;52.362;10.012;2023-04-01T03:20:26;18.20;85.80
5520;DHT22;2782;52.362;10.012;2023-04-01T03:21:27;18.30;85.80
5520;DHT22;2782;52.362;10.012;2023-04-01T03:22:28;18.20;85.70
5520;DHT22;2782;52.362;10.012;2023-04-01T03:23:30;18.20;85.70
5520;DHT22;2782;52.362;10.012;2023-04-01T03:24:32;18.20;85.70
5520;DHT22;2782;52.362;10.012;2023-04-01T03:25:32;18.20;85.60
5520;DHT22;2782;52.362;10.012;2023-04-01T03:26:34;18.20;85.70
5520;DHT22;2782;52.362;10.012;2023-04-01T03:27:35;18.20;85.60
5520;DHT22;2782;52.362;10.012;2023-04-01T03:28:37;18.20;85.60
5520;DHT22;2782;52.362;10.012;2023-04-01T03:29:37;18.20;85.60
5520;DHT22;2782;52.362;10.012;2023-04-01T03:30:39;18.20;85.50
5520;DHT22;2782;52.362;10.012;2023-04-01T03:31:40;18.20;85.50
5520;DHT22;2782;52.362;10.012;2023-04-01T03:32:42;18.20;85.50
5520;DHT22;2782;52.362;10.012;2023-04-01T03:33:42;18.20;85.50
5520;DHT22;2782;52.362;10.012;2023-04-01T03:34:44;18.20;85.50
5520;DHT22;2782;52.362;10.012;2023-04-01T03:35:45;18.20;85.50
5520;DHT22;2782;52.362;10.012;2023-04-01T03:36:46;18.20;85.50
5520;DHT22;2782;52.362;10.012;2023-04-01T03:37:48;18.20;85.60
5520;DHT22;2782;52.362;10.012;2023-04-01T03:38:51;18.20;85.60
5520;DHT22;2782;52.362;10.012;2023-04-01T03:39:53;18.20;85.60
5520;DHT22;2782;52.362;10.012;2023-04-01T03:40:54;18.20;85.60
5520;DHT22;2782;52.362;10.012;2023-04-01T03:41:55;18.20;86.30
5520;DHT22;2782;52.362;10.012;2023-04-01T03:42:57;18.20;85.60
5520;DHT22;2782;52.362;10.012;2023-04-01T03:43:57;18.20;85.60
5520;DHT22;2782;52.362;10.012;2023-04-01T03:44:59;18.20;85.60
5520;DHT22;2782;52.362;10.012;2023-04-01T03:45:59;18.20;85.60
5520;DHT22;2782;52.362;10.012;2023-04-01T03:47:01;18.20;85.60
5520;DHT22;2782;52.362;10.012;2023-04-01T03:48:02;18.20;85.60
5520;DHT22;2782;52.362;10.012;2023-04-01T03:49:06;18.20;85.50
5520;DHT22;2782;52.362;10.012;2023-04-01T03:50:11;18.20;85.50
5520;DHT22;2782;52.362;10.012;2023-04-01T03:51:13;18.10;85.30
5520;DHT22;2782;52.362;10.012;2023-04-01T03:52:14;18.20;85.40
5520;DHT22;2782;52.362;10.012;2023-04-01T03:53:15;18.10;85.30
5520;DHT22;2782;52.362;10.012;2023-04-01T03:54:17;18.10;85.30
5520;DHT22;2782;52.362;10.012;2023-04-01T03:55:20;18.10;85.30
5520;DHT22;2782;52.362;10.012;2023-04-01T03:56:21;18.10;85.30
5520;DHT22;2782;52.362;10.012;2023-04-01T03:57:23;18.20;85.30
5520;DHT22;2782;52.362;10.012;2023-04-01T03:58:23;18.10;85.20
5520;DHT22;2782;52.362;10.012;2023-04-01T03:59:25;18.10;85.10
5520;DHT22;2782;52.362;10.012;2023-04-01T04:00:26;18.10;85.10
5520;DHT22;2782;52.362;10.012;2023-04-01T04:01:27;18.10;85.10
5520;DHT22;2782;52.362;10.012;2023-04-01T04:02:28;18.10;85.10
5520;DHT22;2782;52.362;10.012;2023-04-01T04:03:30;18.10;85.10
5520;DHT22;2782;52.362;10.012;2023-04-01T04:04:30;18.20;85.20
5520;DHT22;2782;52.362;10.012;2023-04-01T04:05:32;18.10;85.10
5520;DHT22;2782;52.362;10.012;2023-04-01T04:06:33;18.10;85.10
5520;DHT22;2782;52.362;10.012;2023-04-01T04:07:35;18.10;85.10
5520;DHT22;2782;52.362;10.012;2023-04-01T04:08:36;18.10;85.00
5520;DHT22;2782;52.362;10.012;2023-04-01T04:09:39;18.10;85.00
5520;DHT22;2782;52.362;10.012;2023-04-01T04:10:40;18.10;84.90
5520;DHT22;2782;52.362;10.012;2023-04-01T04:11:41;18.10;85.00
5520;DHT22;2782;52.362;10.012;2023-04-01T04:12:43;18.10;84.90
5520;DHT22;2782;52.362;10.012;2023-04-01T04:13:43;18.10;84.90
5520;DHT22;2782;52.362;10.012;2023-04-01T04:14:45;18.10;85.60
5520;DHT22;2782;52.362;10.012;2023-04-01T04:15:46;18.10;84.80
5520;DHT22;2782;52.362;10.012;2023-04-01T04:16:47;18.10;84.80
5520;DHT22;2782;52.362;10.012;2023-04-01T04:17:48;18.10;84.90
5520;DHT22;2782;52.362;10.012;2023-04-01T04:18:50;18.10;84.80
5520;DHT22;2782;52.362;10.012;2023-04-01T04:19:51;18.10;84.80
5520;DHT22;2782;52.362;10.012;2023-04-01T04:20:52;18.10;84.80
5520;DHT22;2782;52.362;10.012;2023-04-01T04:21:53;18.10;84.80
5520;DHT22;2782;52.362;10.012;2023-04-01T04:22:55;18.10;84.80
5520;DHT22;2782;52.362;10.012;2023-04-01T04:23:55;18.10;84.80
5520;DHT22;2782;52.362;10.012;2023-04-01T04:24:58;18.10;84.70
5520;DHT22;2782;52.362;10.012;2023-04-01T04:26:02;18.10;84.70
5520;DHT22;2782;52.362;10.012;2023-04-01T04:27:04;18.10;84.80
5520;DHT22;2782;52.362;10.012;2023-04-01T04:28:05;18.10;84.70
5520;DHT22;2782;52.362;10.012;2023-04-01T04:29:06;18.10;84.70
5520;DHT22;2782;52.362;10.012;2023-04-01T04:30:08;18.10;84.70
5520;DHT22;2782;52.362;10.012;2023-04-01T04:31:09;18.10;84.70
5520;DHT22;2782;52.362;10.012;2023-04-01T04:32:10;18.10;84.70
5520;DHT22;2782;52.362;10.012;2023-04-01T04:33:12;18.10;84.70
5520;DHT22;2782;52.362;10.012;2023-04-01T04:34:12;18.10;84.60
5520;DHT22;2782;52.362;10.012;2023-04-01T04:35:14;18.10;84.60
5520;DHT22;2782;52.362;10.012;2023-04-01T04:36:15;18.10;84.60
5520;DHT22;2782;52.362;10.012;2023-04-01T04:37:17;18.10;84.50
5520;DHT22;2782;52.362;10.012;2023-04-01T04:38:18;18.10;84.60
5520;DHT22;2782;52.362;10.012;2023-04-01T04:39:19;18.10;84.60
5520;DHT22;2782;52.362;10.012;2023-04-01T04:40:22;18.10;84.50
5520;DHT22;2782;52.362;10.012;2023-04-01T04:41:22;18.10;84.60
5520;DHT22;2782;52.362;10.012;2023-04-01T04:42:24;18.00;84.40
5520;DHT22;2782;52.362;10.012;2023-04-01T04:43:25;18.00;84.40
5520;DHT22;2782;52.362;10.012;2023-04-01T04:44:26;18.00;84.40
5520;DHT22;2782;52.362;10.012;2023-04-01T04:45:27;18.10;84.60
5520;DHT22;2782;52.362;10.012;2023-04-01T04:46:29;18.00;84.50
5520;DHT22;2782;52.362;10.012;2023-04-01T04:47:29;18.00;84.40
5520;DHT22;2782;52.362;10.012;2023-04-01T04:48:31;18.10;84.60
5520;DHT22;2782;52.362;10.012;2023-04-01T04:49:32;18.10;84.60
5520;DHT22;2782;52.362;10.012;2023-04-01T04:50:33;18.00;84.60
5520;DHT22;2782;52.362;10.012;2023-04-01T04:51:34;18.10;84.70
5520;DHT22;2782;52.362;10.012;2023-04-01T04:52:36;18.00;84.60
5520;DHT22;2782;52.362;10.012;2023-04-01T04:53:36;18.00;84.50
5520;DHT22;2782;52.362;10.012;2023-04-01T04:54:38;18.00;84.50
5520;DHT22;2782;52.362;10.012;2023-04-01T04:55:43;18.00;84.50
5520;DHT22;2782;52.362;10.012;2023-04-01T04:56:45;18.00;84.40
5520;DHT22;2782;52.362;10.012;2023-04-01T04:57:46;18.00;84.40
5520;DHT22;2782;52.362;10.012;2023-04-01T04:58:48;18.00;84.40
5520;DHT22;2782;52.362;10.012;2023-04-01T04:59:48;18.00;84.50
5520;DHT22;2782;52.362;10.012;2023-04-01T05:00:50;18.00;84.40
5520;DHT22;2782;52.362;10.012;2023-04-01T05:01:51;18.00;84.50
5520;DHT22;2782;52.362;10.012;2023-04-01T05:02:52;18.00;84.60
5520;DHT22;2782;52.362;10.012;2023-04-01T05:03:53;18.00;84.60
5520;DHT22;2782;52.362;10.012;2023-04-01T05:04:55;18.00;84.60
5520;DHT22;2782;52.362;10.012;2023-04-01T05:05:55;18.00;84.60
5520;DHT22;2782;52.362;10.012;2023-04-01T05:06:57;18.00;84.50
5520;DHT22;2782;52.362;10.012;2023-04-01T05:07:58;18.00;84.50
5520;DHT22;2782;52.362;10.012;2023-04-01T05:08:59;18.00;84.40
5520;DHT22;2782;52.362;10.012;2023-04-01T05:10:00;18.00;84.40
5520;DHT22;2782;52.362;10.012;2023-04-01T05:11:03;18.00;84.50
5520;DHT22;2782;52.362;10.012;2023-04-01T05:12:04;18.00;84.40
5520;DHT22;2782;52.362;10.012;2023-04-01T05:13:05;18.00;84.40
5520;DHT22;2782;52.362;10.012;2023-04-01T05:14:12;18.00;84.30
5520;DHT22;2782;52.362;10.012;2023-04-01T05:15:14;18.00;84.30
5520;DHT22;2782;52.362;10.012;2023-04-01T05:16:17;18.00;84.30
5520;DHT22;2782;52.362;10.012;2023-04-01T05:17:18;18.00;84.30
5520;DHT22;2782;52.362;10.012;2023-04-01T05:18:19;18.00;84.30
5520;DHT22;2782;52.362;10.012;2023-04-01T05:19:22;18.00;84.20
5520;DHT22;2782;52.362;10.012;2023-04-01T05:20:23;18.00;84.20
5520;DHT22;2782;52.362;10.012;2023-04-01T05:21:25;18.00;84.20
5520;DHT22;2782;52.362;10.012;2023-04-01T05:22:25;18.00;84.20
5520;DHT22;2782;52.362;10.012;2023-04-01T05:23:27;18.00;84.20
5520;DHT22;2782;52.362;10.012;2023-04-01T05:24:29;18.00;84.20
5520;DHT22;2782;52.362;10.012;2023-04-01T05:25:30;18.00;84.20
5520;DHT22;2782;52.362;10.012;2023-04-01T05:26:33;18.00;84.20
5520;DHT22;2782;52.362;10.012;2023-04-01T05:27:33;18.00;84.10
5520;DHT22;2782;52.362;10.012;2023-04-01T05:28:36;18.00;84.10
5520;DHT22;2782;52.362;10.012;2023-04-01T05:29:37;18.00;84.10
5520;DHT22;2782;52.362;10.012;2023-04-01T05:30:40;18.00;84.10
5520;DHT22;2782;52.362;10.012;2023-04-01T05:31:41;18.00;84.10
5520;DHT22;2782;52.362;10.012;2023-04-01T05:32:42;18.00;84.00
5520;DHT22;2782;52.362;10.012;2023-04-01T05:33:44;18.00;84.00
5520;DHT22;2782;52.362;10.012;2023-04-01T05:34:45;18.00;84.00
5520;DHT22;2782;52.362;10.012;2023-04-01T05:35:46;18.00;84.00
5520;DHT22;2782;52.362;10.012;2023-04-01T05:36:47;18.00;83.90
5520;DHT22;2782;52.362;10.012;2023-04-01T05:37:48;18.00;83.90
5520;DHT22;2782;52.362;10.012;2023-04-01T05:38:49;18.00;83.90
5520;DHT22;2782;52.362;10.012;2023-04-01T05:39:50;18.00;83.90
5520;DHT22;2782;52.362;10.012;2023-04-01T05:40:58;18.00;84.00
5520;DHT22;2782;52.362;10.012;2023-04-01T05:42:00;18.00;84.10
5520;DHT22;2782;52.362;10.012;2023-04-01T05:43:02;18.00;84.20
5520;DHT22;2782;52.362;10.012;2023-04-01T05:44:04;18.00;84.70
5520;DHT22;2782;52.362;10.012;2023-04-01T05:45:06;18.00;85.00
5520;DHT22;2782;52.362;10.012;2023-04-01T05:46:07;18.00;85.40
5520;DHT22;2782;52.362;10.012;2023-04-01T05:47:09;18.00;85.40
5520;DHT22;2782;52.362;10.012;2023-04-01T05:48:10;18.00;85.40
5520;DHT22;2782;52.362;10.012;2023-04-01T05:49:11;18.00;85.30
5520;DHT22;2782;52.362;10.012;2023-04-01T05:50:12;18.00;85.30
5520;DHT22;2782;52.362;10.012;2023-04-01T05:51:15;18.00;85.30
5520;DHT22;2782;52.362;10.012;2023-04-01T05:52:16;18.00;85.20
5520;DHT22;2782;52.362;10.012;2023-04-01T05:53:18;18.00;85.20
5520;DHT22;2782;52.362;10.012;2023-04-01T05:54:18;18.00;85.30
5520;DHT22;2782;52.362;10.012;2023-04-01T05:55:20;18.00;85.30
5520;DHT22;2782;52.362;10.012;2023-04-01T05:56:21;18.00;85.20
5520;DHT22;2782;52.362;10.012;2023-04-01T05:57:24;18.00;85.20
5520;DHT22;2782;52.362;10.012;2023-04-01T05:58:25;18.00;85.30
5520;DHT22;2782;52.362;10.012;2023-04-01T05:59:26;18.00;85.30
5520;DHT22;2782;52.362;10.012;2023-04-01T06:00:27;18.00;85.30
5520;DHT22;2782;52.362;10.012;2023-04-01T06:01:28;18.00;85.20
5520;DHT22;2782;52.362;10.012;2023-04-01T06:02:29;18.00;85.20
5520;DHT22;2782;52.362;10.012;2023-04-01T06:03:31;18.00;85.20
5520;DHT22;2782;52.362;10.012;2023-04-01T06:04:36;18.00;85.10
5520;DHT22;2782;52.362;10.012;2023-04-01T06:05:40;18.00;85.10
5520;DHT22;2782;52.362;10.012;2023-04-01T06:06:41;18.00;85.00
5520;DHT22;2782;52.362;10.012;2023-04-01T06:07:43;18.00;85.00
5520;DHT22;2782;52.362;10.012;2023-04-01T06:08:43;18.00;84.90
5520;DHT22;2782;52.362;10.012;2023-04-01T06:09:45;18.00;84.90
5520;DHT22;2782;52.362;10.012;2023-04-01T06:10:55;17.90;84.70
5520;DHT22;2782;52.362;10.012;2023-04-01T06:12:15;17.90;84.70
5520;DHT22;2782;52.362;10.012;2023-04-01T06:13:27;17.90;84.70
5520;DHT22;2782;52.362;10.012;2023-04-01T06:14:37;17.90;84.60
5520;DHT22;2782;52.362;10.012;2023-04-01T06:15:43;17.90;84.60
5520;DHT22;2782;52.362;10.012;2023-04-01T06:16:59;17.90;84.70
5520;DHT22;2782;52.362;10.012;2023-04-01T06:18:29;17.90;84.60
5520;DHT22;2782;52.362;10.012;2023-04-01T06:19:41;17.90;84.70
5520;DHT22;2782;52.362;10.012;2023-04-01T06:20:50;17.90;84.70
5520;DHT22;2782;52.362;10.012;2023-04-01T06:23:49;17.90;84.80
5520;DHT22;2782;52.362;10.012;2023-04-01T06:25:07;17.90;84.80
5520;DHT22;2782;52.362;10.012;2023-04-01T06:26:24;17.90;84.80
5520;DHT22;2782;52.362;10.012;2023-04-01T06:27:45;17.90;84.80
5520;DHT22;2782;52.362;10.012;2023-04-01T06:29:19;17.90;84.80
5520;DHT22;2782;52.362;10.012;2023-04-01T06:30:33;17.90;84.80
5520;DHT22;2782;52.362;10.012;2023-04-01T06:32:01;17.90;84.90
5520;DHT22;2782;52.362;10.012;2023-04-01T06:33:13;17.90;84.90
5520;DHT22;2782;52.362;10.012;2023-04-01T06:34:29;17.90;84.90
5520;DHT22;2782;52.362;10.012;2023-04-01T06:35:43;17.90;84.90
5520;DHT22;2782;52.362;10.012;2023-04-01T06:37:07;17.80;84.80
5520;DHT22;2782;52.362;10.012;2023-04-01T06:38:25;17.90;84.90
5520;DHT22;2782;52.362;10.012;2023-04-01T06:39:44;17.80;84.80
5520;DHT22;2782;52.362;10.012;2023-04-01T06:42:39;17.80;85.10
5520;DHT22;2782;52.362;10.012;2023-04-01T06:43:50;17.80;85.40
5520;DHT22;2782;52.362;10.012;2023-04-01T06:45:08;17.80;86.30
5520;DHT22;2782;52.362;10.012;2023-04-01T06:46:18;17.80;86.70
5520;DHT22;2782;52.362;10.012;2023-04-01T06:47:28;17.80;87.20
5520;DHT22;2782;52.362;10.012;2023-04-01T06:48:43;17.90;87.90
5520;DHT22;2782;52.362;10.012;2023-04-01T06:49:55;17.90;88.70
5520;DHT22;2782;52.362;10.012;2023-04-01T06:51:06;17.90;89.80
5520;DHT22;2782;52.362;10.012;2023-04-01T06:52:16;17.90;90.20
5520;DHT22;2782;52.362;10.012;2023-04-01T06:53:25;18.00;90.60
5520;DHT22;2782;52.362;10.012;2023-04-01T06:54:31;17.90;90.70
5520;DHT22;2782;52.362;10.012;2023-04-01T06:55:39;18.00;91.20